createdAt,value
2019-05-03T00:03:12.668Z,14.40
2019-05-03T00:08:15.426Z,14.40
2019-05-03T00:13:17.976Z,14.40
2019-05-03T00:18:22.086Z,14.50
2019-05-03T00:23:23.603Z,14.40
2019-05-03T00:28:26.185Z,14.40
2019-05-03T00:33:29.180Z,14.50
2019-05-03T00:38:32.542Z,14.50
2019-05-03T00:43:34.993Z,14.50
2019-05-03T00:48:37.646Z,14.50
2019-05-03T00:53:42.266Z,14.50
2019-05-03T00:58:49.334Z,14.50
2019-05-03T01:03:52.607Z,14.50
2019-05-03T01:08:54.696Z,14.50
2019-05-03T01:13:57.338Z,14.50
2019-05-03T01:18:59.936Z,14.60
2019-05-03T01:24:02.499Z,14.50
2019-05-03T01:29:05.104Z,14.40
2019-05-03T01:34:07.692Z,14.30
2019-05-03T01:39:10.312Z,14.30
2019-05-03T01:44:12.964Z,14.10
2019-05-03T01:49:22.885Z,14.10
2019-05-03T01:54:24.246Z,14.20
2019-05-03T01:59:26.856Z,14.20
2019-05-03T02:04:37.395Z,14.10
2019-05-03T02:09:41.598Z,14.00
2019-05-03T02:14:42.517Z,14.00
2019-05-03T02:19:45.092Z,14.00
2019-05-03T02:24:49.121Z,14.00
2019-05-03T02:29:52.439Z,14.00
2019-05-03T02:34:54.222Z,13.90
2019-05-03T02:39:56.899Z,13.90
2019-05-03T02:44:59.509Z,14.00
2019-05-03T02:50:06.458Z,13.90
2019-05-03T02:55:09.697Z,13.90
2019-05-03T03:00:15.999Z,14.00
2019-05-03T03:05:16.665Z,14.00
2019-05-03T03:10:18.369Z,13.90
2019-05-03T03:15:21.078Z,13.90
2019-05-03T03:20:25.370Z,13.90
2019-05-03T03:25:26.753Z,13.80
2019-05-03T03:30:48.436Z,13.80
2019-05-03T03:35:48.922Z,13.70
2019-05-03T03:40:49.542Z,13.70
2019-05-03T03:45:52.169Z,13.70
2019-05-03T03:50:56.175Z,13.60
2019-05-03T03:55:57.528Z,13.70
2019-05-03T04:01:06.734Z,13.70
2019-05-03T04:06:09.321Z,13.70
2019-05-03T04:11:11.913Z,13.60
2019-05-03T04:16:26.139Z,13.60
2019-05-03T04:21:28.736Z,13.70
2019-05-03T04:26:31.415Z,13.60
2019-05-03T04:31:36.524Z,13.60
2019-05-03T04:36:36.631Z,13.60
2019-05-03T04:41:39.228Z,13.60
2019-05-03T04:46:41.853Z,13.50
2019-05-03T04:51:46.569Z,13.50
2019-05-03T04:56:47.113Z,13.40
2019-05-03T05:01:49.728Z,13.40
2019-05-03T05:06:52.336Z,13.30
2019-05-03T05:11:55.410Z,13.40
2019-05-03T05:16:57.965Z,13.50
2019-05-03T05:22:05.333Z,13.40
2019-05-03T05:27:18.218Z,13.40
2019-05-03T05:32:20.828Z,13.50
2019-05-03T05:37:25.020Z,13.50
2019-05-03T05:42:26.050Z,13.60
2019-05-03T05:47:37.501Z,13.60
2019-05-03T05:52:40.054Z,13.70
2019-05-03T05:57:48.123Z,13.70
2019-05-03T06:02:50.652Z,13.80
2019-05-03T06:07:59.014Z,13.70
2019-05-03T06:13:06.101Z,13.80
2019-05-03T06:18:14.667Z,13.90
2019-05-03T06:23:24.780Z,13.90
2019-05-03T06:28:31.028Z,14.00
2019-05-03T06:33:34.728Z,14.00
2019-05-03T06:38:36.180Z,14.00
2019-05-03T06:43:39.513Z,13.90
2019-05-03T06:48:42.005Z,13.90
2019-05-03T06:53:47.539Z,13.90
2019-05-03T06:58:47.274Z,13.90
2019-05-03T07:03:56.280Z,13.90
2019-05-03T07:10:05.578Z,13.90
2019-05-03T07:15:08.194Z,13.90
2019-05-03T07:20:10.834Z,13.90
2019-05-03T07:25:14.958Z,14.00
2019-05-03T07:30:16.124Z,13.90
2019-05-03T07:35:18.734Z,14.00
2019-05-03T07:40:21.300Z,14.10
2019-05-03T07:45:25.415Z,14.00
2019-05-03T07:50:26.545Z,14.00
2019-05-03T07:55:35.287Z,14.20
2019-05-03T08:00:48.667Z,14.30
2019-05-03T08:05:51.342Z,14.40
2019-05-03T08:10:55.020Z,14.50
2019-05-03T08:15:56.660Z,14.60
2019-05-03T08:20:59.274Z,14.70
2019-05-03T08:26:01.958Z,14.90
2019-05-03T08:31:15.394Z,15.00
2019-05-03T08:36:18.086Z,15.10
2019-05-03T08:41:20.840Z,15.10
2019-05-03T08:46:25.342Z,15.30
2019-05-03T08:51:26.288Z,15.40
2019-05-03T08:56:28.916Z,15.50
2019-05-03T09:01:31.800Z,15.70
2019-05-03T09:06:35.475Z,16.00
2019-05-03T09:11:37.062Z,16.20
2019-05-03T09:16:40.859Z,16.30
2019-05-03T09:21:45.265Z,16.50
2019-05-03T09:26:46.151Z,16.80
2019-05-03T09:31:48.751Z,16.60
2019-05-03T09:36:51.304Z,16.30
2019-05-03T09:41:55.432Z,16.00
2019-05-03T09:46:56.510Z,15.50
2019-05-03T09:51:59.233Z,15.50
2019-05-03T09:57:01.809Z,15.20
2019-05-03T10:02:04.917Z,15.20
2019-05-03T10:07:07.134Z,15.20
2019-05-03T10:12:12.754Z,15.40
2019-05-03T10:17:21.068Z,15.40
2019-05-03T10:22:25.264Z,15.80
2019-05-03T10:27:28.060Z,16.00
2019-05-03T10:32:35.542Z,15.80
2019-05-03T10:37:37.876Z,16.00
2019-05-03T10:42:40.446Z,16.60
2019-05-03T10:47:45.679Z,16.70
2019-05-03T10:52:52.417Z,17.00
2019-05-03T10:58:00.642Z,17.10
2019-05-03T11:03:05.327Z,16.60
2019-05-03T11:08:06.509Z,16.50
2019-05-03T11:13:09.132Z,16.30
2019-05-03T11:18:11.742Z,16.30
2019-05-03T11:23:14.592Z,16.30
2019-05-03T11:28:25.012Z,16.20
2019-05-03T11:33:31.602Z,16.40
2019-05-03T11:38:37.480Z,16.80
2019-05-03T11:43:40.031Z,16.80
2019-05-03T11:48:42.607Z,17.00
2019-05-03T11:53:45.243Z,17.10
2019-05-03T11:58:47.850Z,18.10
2019-05-03T12:03:52.922Z,18.40
2019-05-03T12:09:00.451Z,18.70
2019-05-03T12:14:08.643Z,19.00
2019-05-03T12:19:16.826Z,18.90
2019-05-03T12:24:15.939Z,19.10
2019-05-03T12:29:16.558Z,19.50
2019-05-03T12:34:19.185Z,19.40
2019-05-03T12:39:26.710Z,18.70
2019-05-03T12:44:24.790Z,18.40
2019-05-03T12:49:27.123Z,18.30
2019-05-03T12:54:29.769Z,18.60
2019-05-03T12:59:38.146Z,19.20
2019-05-03T13:04:40.810Z,19.70
2019-05-03T13:09:45.346Z,20.00
2019-05-03T13:14:46.030Z,19.70
2019-05-03T13:19:48.550Z,19.40
2019-05-03T13:24:51.168Z,18.90
2019-05-03T13:29:55.589Z,18.60
2019-05-03T13:34:56.440Z,18.40
2019-05-03T13:39:59.121Z,18.30
2019-05-03T13:45:01.914Z,18.30
2019-05-03T13:50:05.168Z,18.40
2019-05-03T13:55:07.883Z,18.40
2019-05-03T14:00:10.660Z,18.10
2019-05-03T14:05:15.364Z,17.90
2019-05-03T14:10:16.531Z,17.90
2019-05-03T14:15:19.333Z,17.80
2019-05-03T14:20:28.576Z,17.70
2019-05-03T14:25:31.274Z,17.60
2019-05-03T14:30:34.661Z,17.50
2019-05-03T14:35:36.546Z,17.40
2019-05-03T14:40:39.218Z,17.40
2019-05-03T14:45:42.124Z,17.40
2019-05-03T14:50:45.621Z,17.50
2019-05-03T14:55:51.642Z,17.50
2019-05-03T15:01:02.147Z,17.50
2019-05-03T15:06:05.280Z,17.40
2019-05-03T15:11:07.537Z,17.30
2019-05-03T15:16:10.145Z,17.20
2019-05-03T15:21:14.595Z,17.00
2019-05-03T15:26:16.724Z,16.90
2019-05-03T15:31:19.386Z,16.90
2019-05-03T15:36:22.040Z,16.80
2019-05-03T15:41:25.175Z,16.80
2019-05-03T15:46:31.853Z,16.80
2019-05-03T15:51:34.516Z,16.80
2019-05-03T15:56:37.022Z,16.90
2019-05-03T16:01:39.754Z,16.60
2019-05-03T16:06:44.812Z,16.70
2019-05-03T16:11:45.856Z,16.70
2019-05-03T16:16:48.460Z,16.60
2019-05-03T16:21:51.048Z,16.60
2019-05-03T16:26:59.190Z,16.60
2019-05-03T16:32:01.806Z,16.70
2019-05-03T16:37:04.524Z,16.70
2019-05-03T16:42:07.093Z,16.70
2019-05-03T16:47:09.836Z,16.70
2019-05-03T16:52:12.431Z,16.60
2019-05-03T16:57:17.468Z,16.60
2019-05-03T17:02:17.730Z,16.60
2019-05-03T17:07:26.059Z,16.50
2019-05-03T17:12:29.779Z,16.40
2019-05-03T17:17:34.399Z,16.40
2019-05-03T17:22:35.058Z,16.40
2019-05-03T17:27:37.704Z,16.30
2019-05-03T17:32:40.255Z,16.20
2019-05-03T17:37:49.161Z,16.10
2019-05-03T17:43:00.882Z,16.00
2019-05-03T17:48:04.475Z,15.90
2019-05-03T17:53:17.828Z,16.00
2019-05-03T17:58:28.935Z,16.00
2019-05-03T18:03:33.560Z,16.00
2019-05-03T18:08:55.918Z,16.00
2019-05-03T18:13:58.571Z,16.00
2019-05-03T18:19:01.172Z,16.00
2019-05-03T18:24:04.935Z,16.00
2019-05-03T18:29:06.534Z,16.00
2019-05-03T18:34:19.180Z,16.00
2019-05-03T18:39:12.024Z,15.90
2019-05-03T18:44:21.895Z,15.90
2019-05-03T18:49:24.901Z,15.80
2019-05-03T18:54:27.415Z,15.90
2019-05-03T18:59:30.004Z,15.80
2019-05-03T19:04:38.387Z,15.80
2019-05-03T19:09:49.477Z,15.80
2019-05-03T19:14:52.316Z,15.80
2019-05-03T19:19:55.259Z,15.80
2019-05-03T19:24:57.802Z,15.70
2019-05-03T19:30:00.637Z,15.60
2019-05-03T19:35:05.008Z,15.70
2019-05-03T19:40:06.612Z,15.60
2019-05-03T19:45:09.141Z,15.60
2019-05-03T19:50:12.006Z,15.60
2019-05-03T19:55:15.440Z,15.50
2019-05-03T20:00:17.770Z,15.50
2019-05-03T20:05:28.000Z,15.40
2019-05-03T20:10:30.674Z,15.40
2019-05-03T20:15:33.355Z,15.30
2019-05-03T20:20:35.936Z,15.30
2019-05-03T20:25:38.669Z,15.30
2019-05-03T20:30:41.388Z,15.20
2019-05-03T20:35:45.154Z,15.10
2019-05-03T20:40:46.727Z,15.20
2019-05-03T20:46:00.241Z,15.20
2019-05-03T20:51:02.922Z,15.30
2019-05-03T20:56:05.511Z,15.20
2019-05-03T21:01:08.205Z,15.20
2019-05-03T21:06:10.831Z,15.10
2019-05-03T21:11:14.822Z,15.00
2019-05-03T21:16:23.472Z,14.90
2019-05-03T21:21:36.958Z,14.90
2019-05-03T21:26:39.516Z,14.80
2019-05-03T21:31:42.006Z,14.80
2019-05-03T21:36:45.311Z,14.70
2019-05-03T21:41:47.285Z,14.60
2019-05-03T21:46:49.936Z,14.60
2019-05-03T21:51:53.676Z,14.50
2019-05-03T21:56:57.931Z,14.40
2019-05-03T22:01:57.863Z,14.30
2019-05-03T22:07:00.607Z,14.30
2019-05-03T22:12:05.102Z,14.10
2019-05-03T22:17:16.423Z,14.10
2019-05-03T22:22:25.541Z,14.00
2019-05-03T22:27:31.505Z,14.00
2019-05-03T22:32:35.458Z,14.00
2019-05-03T22:37:36.714Z,14.00
2019-05-03T22:42:39.337Z,13.90
2019-05-03T22:47:41.989Z,13.80
2019-05-03T22:52:45.531Z,13.80
2019-05-03T22:57:47.161Z,13.80
2019-05-03T23:02:49.710Z,13.70
2019-05-03T23:07:52.357Z,13.70
2019-05-03T23:12:55.074Z,13.50
2019-05-03T23:17:57.713Z,13.50
2019-05-03T23:23:00.338Z,13.50
2019-05-03T23:28:02.831Z,13.40
2019-05-03T23:33:05.418Z,13.40
2019-05-03T23:38:07.971Z,13.40
2019-05-03T23:43:10.576Z,13.40
2019-05-03T23:48:14.938Z,13.40
2019-05-03T23:53:15.757Z,13.10
2019-05-03T23:58:18.346Z,12.70
